Time;durP1;ratioP1;P1;durP2;ratioP2;P2;SDS_P1;SDS_P2;PMS_P1;PMS_P2;Temp;Humidity;BMP_temperature;BMP_pressure;BME280_temperature;BME280_humidity;BME280_pressure;Samples;Min_cycle;Max_cycle;Signal;HPM_P1;HPM_P2
2022/01/17 00:01:17;;;;;;;5.13;1.88;;;;;;;;;;7360783;19;20515;-61
2022/01/17 00:03:43;;;;;;;6.32;2.22;;;;;;;;;;7365359;19;20010;-61
2022/01/17 00:06:09;;;;;;;5.03;1.92;;;;;;;;;;7378566;19;20010;-61
2022/01/17 00:08:41;;;;;;;6.00;1.55;;;;;;;;;;7370328;19;20035;-61
2022/01/17 00:11:07;;;;;;;5.05;1.85;;;;;;;;;;7370078;19;20034;-61
2022/01/17 00:13:33;;;;;;;5.10;1.58;;;;;;;;;;7350396;19;20025;-61
2022/01/17 00:16:12;;;;;;;4.43;1.50;;;;;;;;;;7370861;19;20011;-61
2022/01/17 00:21:05;;;;;;;5.70;1.83;;;;;;;;;;7371327;19;20021;-61
2022/01/17 00:23:31;;;;;;;5.05;1.60;;;;;;;;;;7371580;19;20023;-61
2022/01/17 00:25:57;;;;;;;6.35;2.03;;;;;;;;;;7382402;19;20473;-61
2022/01/17 00:28:23;;;;;;;6.07;1.92;;;;;;;;;;7369424;19;20006;-61
2022/01/17 00:30:49;;;;;;;5.93;1.90;;;;;;;;;;7364597;19;20078;-61
2022/01/17 00:33:16;;;;;;;4.15;1.70;;;;;;;;;;7372876;19;20006;-62
2022/01/17 00:35:42;;;;;;;6.05;1.77;;;;;;;;;;7379968;19;20384;-61
2022/01/17 00:38:08;;;;;;;4.70;1.80;;;;;;;;;;7373607;19;20022;-61
2022/01/17 00:43:06;;;;;;;5.30;1.55;;;;;;;;;;7365359;19;20502;-61
2022/01/17 00:45:32;;;;;;;4.30;1.65;;;;;;;;;;7373986;19;20019;-61
2022/01/17 00:48:00;;;;;;;4.93;1.60;;;;;;;;;;7365748;19;20033;-61
2022/01/17 00:50:27;;;;;;;5.28;1.67;;;;;;;;;;7381197;19;20014;-61
2022/01/17 00:52:54;;;;;;;4.53;1.65;;;;;;;;;;7373626;19;20026;-61
2022/01/17 00:55:20;;;;;;;4.85;1.65;;;;;;;;;;7374826;19;20070;-61
2022/01/17 00:57:45;;;;;;;4.43;1.50;;;;;;;;;;7361793;19;20051;-61
2022/01/17 01:00:12;;;;;;;3.95;1.60;;;;;;;;;;7372877;19;20002;-61
2022/01/17 01:02:39;;;;;;;4.35;1.58;;;;;;;;;;7363640;19;20019;-61
2022/01/17 01:05:05;;;;;;;4.45;1.50;;;;;;;;;;7369571;19;20049;-61
2022/01/17 01:07:32;;;;;;;5.35;1.80;;;;;;;;;;7378192;19;20010;-61
2022/01/17 01:10:08;;;;;;;4.00;1.33;;;;;;;;;;7355386;19;20598;-61
2022/01/17 01:12:35;;;;;;;3.67;1.40;;;;;;;;;;7371262;19;20018;-61
2022/01/17 01:15:01;;;;;;;5.13;1.77;;;;;;;;;;7379632;19;20010;-61
2022/01/17 01:17:36;;;;;;;5.22;1.98;;;;;;;;;;7367648;19;20007;-61
2022/01/17 01:20:30;;;;;;;5.03;1.65;;;;;;;;;;7369226;19;20121;-61
2022/01/17 01:28:27;;;;;;;3.88;1.40;;;;;;;;;;7371626;19;20029;-61
2022/01/17 01:30:55;;;;;;;5.13;1.60;;;;;;;;;;7343823;19;20018;-61
2022/01/17 01:33:29;;;;;;;4.85;1.50;;;;;;;;;;7378712;19;20015;-62
2022/01/17 01:36:07;;;;;;;4.15;1.63;;;;;;;;;;7366490;19;20023;-62
2022/01/17 01:38:33;;;;;;;5.15;1.63;;;;;;;;;;7376369;19;20018;-62
2022/01/17 01:40:59;;;;;;;4.00;1.50;;;;;;;;;;7374567;19;20010;-62
2022/01/17 01:43:25;;;;;;;4.50;1.55;;;;;;;;;;7370257;19;20006;-62
2022/01/17 01:45:57;;;;;;;5.07;1.63;;;;;;;;;;7359590;19;20031;-62
2022/01/17 01:48:24;;;;;;;3.85;1.30;;;;;;;;;;7379995;19;20015;-62
2022/01/17 01:50:50;;;;;;;4.53;1.52;;;;;;;;;;7373815;19;20022;-62
2022/01/17 01:53:16;;;;;;;4.05;1.55;;;;;;;;;;7376308;19;20042;-62
2022/01/17 01:55:42;;;;;;;5.43;1.50;;;;;;;;;;7361820;19;20085;-62
2022/01/17 01:58:09;;;;;;;3.97;1.52;;;;;;;;;;7378416;19;20487;-62
2022/01/17 02:00:35;;;;;;;4.72;1.60;;;;;;;;;;7356004;19;20017;-62
2022/01/17 02:03:01;;;;;;;4.03;1.50;;;;;;;;;;7372172;19;20038;-62
2022/01/17 02:05:27;;;;;;;5.05;1.60;;;;;;;;;;7375738;19;20577;-62
2022/01/17 02:07:53;;;;;;;4.43;1.73;;;;;;;;;;7369379;19;20077;-62
2022/01/17 02:10:19;;;;;;;3.90;1.55;;;;;;;;;;7355035;19;20022;-62
2022/01/17 02:12:45;;;;;;;6.07;1.73;;;;;;;;;;7354978;19;20761;-62
2022/01/17 02:15:12;;;;;;;4.68;1.58;;;;;;;;;;7356950;19;20019;-62
2022/01/17 02:17:44;;;;;;;4.68;1.70;;;;;;;;;;7374460;19;20035;-62
2022/01/17 02:20:16;;;;;;;3.60;1.40;;;;;;;;;;7379815;19;20010;-63
2022/01/17 02:22:42;;;;;;;4.82;1.50;;;;;;;;;;7366381;19;20109;-62
2022/01/17 02:25:08;;;;;;;4.22;1.70;;;;;;;;;;7376881;19;20014;-62
2022/01/17 02:27:34;;;;;;;3.80;1.55;;;;;;;;;;7373833;19;20038;-62
2022/01/17 02:30:01;;;;;;;4.70;1.70;;;;;;;;;;7373297;19;20021;-62
2022/01/17 02:32:27;;;;;;;4.60;1.55;;;;;;;;;;7341463;19;20010;-62
2022/01/17 02:35:10;;;;;;;3.80;1.40;;;;;;;;;;7353641;19;20542;-62
2022/01/17 02:37:36;;;;;;;2.80;1.08;;;;;;;;;;7360778;19;20024;-62
2022/01/17 02:40:02;;;;;;;4.78;1.50;;;;;;;;;;7378239;19;20509;-62
2022/01/17 02:42:28;;;;;;;4.03;1.40;;;;;;;;;;7356065;19;20007;-62
2022/01/17 02:44:59;;;;;;;3.30;1.23;;;;;;;;;;7378387;19;20011;-62
2022/01/17 02:47:26;;;;;;;3.60;1.25;;;;;;;;;;7364094;19;20374;-62
2022/01/17 02:49:52;;;;;;;4.97;1.65;;;;;;;;;;7377637;19;20042;-62
2022/01/17 02:52:21;;;;;;;4.45;1.80;;;;;;;;;;7374566;19;20759;-62
2022/01/17 02:54:46;;;;;;;4.20;1.55;;;;;;;;;;7375236;19;20027;-62
2022/01/17 02:57:12;;;;;;;3.30;1.13;;;;;;;;;;7356135;19;20023;-62
2022/01/17 02:59:38;;;;;;;3.13;1.17;;;;;;;;;;7359241;19;20030;-62
2022/01/17 03:02:05;;;;;;;4.07;1.40;;;;;;;;;;7354968;19;20431;-62
2022/01/17 03:04:32;;;;;;;4.07;1.48;;;;;;;;;;7374962;19;20023;-62
2022/01/17 03:06:59;;;;;;;3.60;1.35;;;;;;;;;;7367954;19;20100;-62
2022/01/17 03:09:27;;;;;;;3.70;1.25;;;;;;;;;;7378234;19;20018;-62
2022/01/17 03:11:53;;;;;;;4.60;1.45;;;;;;;;;;7368223;19;20014;-62
2022/01/17 03:14:19;;;;;;;4.53;1.50;;;;;;;;;;7362066;19;20035;-62
2022/01/17 03:16:48;;;;;;;3.78;1.40;;;;;;;;;;7346645;19;20010;-62
2022/01/17 03:19:14;;;;;;;3.80;1.25;;;;;;;;;;7372766;19;20026;-62
2022/01/17 03:21:40;;;;;;;3.83;1.30;;;;;;;;;;7373361;19;20018;-62
2022/01/17 03:24:07;;;;;;;3.95;1.35;;;;;;;;;;7374725;19;20582;-62
2022/01/17 03:26:33;;;;;;;3.47;1.10;;;;;;;;;;7354426;19;20055;-62
2022/01/17 03:29:00;;;;;;;3.72;1.40;;;;;;;;;;7369708;19;20053;-62
2022/01/17 03:31:26;;;;;;;4.00;1.30;;;;;;;;;;7355150;19;20804;-62
2022/01/17 03:33:52;;;;;;;3.92;1.30;;;;;;;;;;7375451;19;20002;-62
2022/01/17 03:36:18;;;;;;;3.58;1.40;;;;;;;;;;7361274;19;20021;-62
2022/01/17 03:38:44;;;;;;;3.55;1.20;;;;;;;;;;7376402;19;20048;-62
2022/01/17 03:41:13;;;;;;;4.40;1.30;;;;;;;;;;7372735;19;20018;-62
2022/01/17 03:43:38;;;;;;;4.25;1.40;;;;;;;;;;7366704;19;20399;-62
2022/01/17 03:46:05;;;;;;;4.50;1.23;;;;;;;;;;7362016;19;20015;-62
2022/01/17 03:48:31;;;;;;;3.00;0.90;;;;;;;;;;7372961;19;20346;-62
2022/01/17 03:50:58;;;;;;;3.83;1.27;;;;;;;;;;7372121;19;20423;-62
2022/01/17 03:53:25;;;;;;;3.55;1.33;;;;;;;;;;7364362;19;20021;-62
2022/01/17 03:55:51;;;;;;;3.97;1.40;;;;;;;;;;7363446;19;20054;-62
2022/01/17 03:58:18;;;;;;;4.90;1.55;;;;;;;;;;7379767;19;20052;-62
2022/01/17 04:00:46;;;;;;;3.40;1.17;;;;;;;;;;7366885;19;20367;-62
2022/01/17 04:03:12;;;;;;;3.67;1.20;;;;;;;;;;7379228;19;20014;-62
2022/01/17 04:05:38;;;;;;;3.83;1.30;;;;;;;;;;7372908;19;20018;-62
2022/01/17 04:08:05;;;;;;;4.50;1.67;;;;;;;;;;7374510;19;20493;-62
2022/01/17 04:13:04;;;;;;;2.97;1.10;;;;;;;;;;7365759;19;20034;-62
2022/01/17 04:15:31;;;;;;;4.30;1.23;;;;;;;;;;7364708;19;20097;-62
2022/01/17 04:17:57;;;;;;;3.50;1.30;;;;;;;;;;7381112;19;20731;-62
2022/01/17 04:20:30;;;;;;;3.45;1.10;;;;;;;;;;7376110;19;20026;-62
2022/01/17 04:22:57;;;;;;;3.40;1.10;;;;;;;;;;7379302;19;20375;-62
2022/01/17 04:25:24;;;;;;;3.78;1.40;;;;;;;;;;7384365;19;20015;-62
2022/01/17 04:27:52;;;;;;;3.22;1.20;;;;;;;;;;7374681;19;20040;-62
2022/01/17 04:30:18;;;;;;;3.47;1.10;;;;;;;;;;7360593;19;20754;-62
2022/01/17 04:32:45;;;;;;;3.60;1.38;;;;;;;;;;7380827;19;20015;-62
2022/01/17 04:35:12;;;;;;;3.03;1.10;;;;;;;;;;7370889;19;20011;-62
2022/01/17 04:37:38;;;;;;;3.55;1.42;;;;;;;;;;7379375;19;20010;-62
2022/01/17 04:42:45;;;;;;;2.88;1.05;;;;;;;;;;7369600;19;20006;-62
2022/01/17 04:45:13;;;;;;;3.17;1.20;;;;;;;;;;7356038;19;20048;-62
2022/01/17 04:47:40;;;;;;;3.15;1.20;;;;;;;;;;7376923;19;20036;-62
2022/01/17 04:50:07;;;;;;;3.10;1.00;;;;;;;;;;7379932;19;20718;-62
2022/01/17 04:52:35;;;;;;;3.50;1.20;;;;;;;;;;7380234;19;20346;-62
2022/01/17 04:55:02;;;;;;;4.55;1.85;;;;;;;;;;7362033;19;20389;-62
2022/01/17 04:57:28;;;;;;;3.00;1.10;;;;;;;;;;7355608;19;20019;-62
2022/01/17 04:59:54;;;;;;;3.22;1.00;;;;;;;;;;7365287;19;20018;-62
2022/01/17 05:02:20;;;;;;;3.00;1.20;;;;;;;;;;7355703;19;20014;-62
2022/01/17 05:04:46;;;;;;;3.25;1.17;;;;;;;;;;7362510;19;20011;-62
2022/01/17 05:07:14;;;;;;;3.70;1.13;;;;;;;;;;7366205;19;20086;-62
2022/01/17 05:09:41;;;;;;;3.55;1.40;;;;;;;;;;7357411;19;20011;-62
2022/01/17 05:12:07;;;;;;;4.10;1.23;;;;;;;;;;7376333;19;20018;-62
2022/01/17 05:14:33;;;;;;;3.65;1.20;;;;;;;;;;7367294;19;20022;-62
2022/01/17 05:17:07;;;;;;;3.83;1.40;;;;;;;;;;7344292;19;20558;-62
2022/01/17 05:19:57;;;;;;;3.33;1.10;;;;;;;;;;7381430;19;20018;-62
2022/01/17 05:22:24;;;;;;;3.42;1.10;;;;;;;;;;7375713;19;20371;-62
2022/01/17 05:24:50;;;;;;;2.67;0.93;;;;;;;;;;7369722;19;20654;-62
2022/01/17 05:27:16;;;;;;;4.45;1.20;;;;;;;;;;7366075;19;20039;-62
2022/01/17 05:29:42;;;;;;;6.97;1.58;;;;;;;;;;7379389;19;20035;-62
2022/01/17 05:32:08;;;;;;;4.18;0.95;;;;;;;;;;7363204;19;20147;-62
2022/01/17 05:34:37;;;;;;;5.90;1.58;;;;;;;;;;7376866;19;20018;-62
2022/01/17 05:37:03;;;;;;;5.38;1.10;;;;;;;;;;7367760;19;20011;-62
2022/01/17 05:39:29;;;;;;;4.43;1.50;;;;;;;;;;7379492;19;20013;-62
2022/01/17 05:41:55;;;;;;;4.22;1.17;;;;;;;;;;7372432;19;20007;-62
2022/01/17 05:44:21;;;;;;;4.13;1.10;;;;;;;;;;7379631;19;20010;-62
2022/01/17 05:46:47;;;;;;;4.05;1.55;;;;;;;;;;7368212;19;20465;-62
2022/01/17 05:49:12;;;;;;;7.80;1.33;;;;;;;;;;7363034;19;20010;-62
2022/01/17 05:51:38;;;;;;;4.50;1.10;;;;;;;;;;7349403;19;20006;-62
2022/01/17 05:54:05;;;;;;;5.70;1.20;;;;;;;;;;7377215;19;20366;-62
2022/01/17 05:56:31;;;;;;;4.93;1.08;;;;;;;;;;7374982;19;20014;-62
2022/01/17 05:58:57;;;;;;;8.10;1.27;;;;;;;;;;7357260;19;20344;-62
2022/01/17 06:01:23;;;;;;;4.78;1.20;;;;;;;;;;7350703;19;20480;-62
2022/01/17 06:03:49;;;;;;;4.03;1.20;;;;;;;;;;7377037;19;20025;-62
2022/01/17 06:06:15;;;;;;;2.63;1.00;;;;;;;;;;7376334;19;20267;-62
2022/01/17 06:08:42;;;;;;;5.38;1.08;;;;;;;;;;7367182;19;20050;-62
2022/01/17 06:13:40;;;;;;;3.65;1.25;;;;;;;;;;7362195;19;20006;-62
2022/01/17 06:16:06;;;;;;;2.95;1.00;;;;;;;;;;7370902;19;20109;-62
2022/01/17 06:18:32;;;;;;;2.60;0.90;;;;;;;;;;7375420;19;20523;-62
2022/01/17 06:20:58;;;;;;;3.55;1.20;;;;;;;;;;7364709;19;20026;-62
2022/01/17 06:23:25;;;;;;;2.65;0.93;;;;;;;;;;7375318;19;20010;-62
2022/01/17 06:25:51;;;;;;;7.20;1.38;;;;;;;;;;7363633;19;20503;-62
2022/01/17 06:28:17;;;;;;;2.83;0.95;;;;;;;;;;7361728;19;20033;-62
2022/01/17 06:30:43;;;;;;;3.42;1.10;;;;;;;;;;7365045;19;20018;-62
2022/01/17 06:33:09;;;;;;;3.28;0.85;;;;;;;;;;7372833;19;20016;-62
2022/01/17 06:35:37;;;;;;;2.95;0.90;;;;;;;;;;7364971;19;20026;-62
2022/01/17 06:38:03;;;;;;;3.10;0.93;;;;;;;;;;7376374;19;20011;-62
2022/01/17 06:43:01;;;;;;;3.72;1.30;;;;;;;;;;7355118;19;20443;-62
2022/01/17 06:45:27;;;;;;;6.57;1.30;;;;;;;;;;7367797;19;20706;-62
2022/01/17 06:47:53;;;;;;;3.20;0.98;;;;;;;;;;7379568;19;20490;-62
2022/01/17 06:50:19;;;;;;;4.68;1.10;;;;;;;;;;7377132;19;20046;-62
2022/01/17 06:52:46;;;;;;;3.63;1.02;;;;;;;;;;7360430;19;20133;-62
2022/01/17 06:55:12;;;;;;;2.83;1.00;;;;;;;;;;7379823;19;20014;-62
2022/01/17 06:57:38;;;;;;;2.80;0.90;;;;;;;;;;7364668;19;20010;-62
2022/01/17 07:00:11;;;;;;;4.25;1.23;;;;;;;;;;7366705;19;20025;-62
2022/01/17 07:02:37;;;;;;;7.90;1.50;;;;;;;;;;7367808;19;20011;-62
2022/01/17 07:05:03;;;;;;;3.88;1.10;;;;;;;;;;7374259;19;20010;-62
2022/01/17 07:07:30;;;;;;;3.45;1.20;;;;;;;;;;7367281;19;20030;-62
2022/01/17 07:09:56;;;;;;;3.53;0.95;;;;;;;;;;7370571;19;20010;-62
2022/01/17 07:12:22;;;;;;;3.75;1.23;;;;;;;;;;7365069;19;20025;-62
2022/01/17 07:14:48;;;;;;;2.97;1.00;;;;;;;;;;7376030;19;20027;-62
2022/01/17 07:17:14;;;;;;;4.50;1.13;;;;;;;;;;7356964;19;20006;-62
2022/01/17 07:19:40;;;;;;;4.82;1.10;;;;;;;;;;7377925;19;20022;-62
2022/01/17 07:22:06;;;;;;;3.35;1.15;;;;;;;;;;7368867;19;20467;-62
2022/01/17 07:24:33;;;;;;;5.85;1.40;;;;;;;;;;7379867;19;20022;-62
2022/01/17 07:26:59;;;;;;;3.80;1.00;;;;;;;;;;7370013;19;20043;-62
2022/01/17 07:29:26;;;;;;;2.75;0.98;;;;;;;;;;7370864;19;20011;-62
2022/01/17 07:31:52;;;;;;;4.22;1.27;;;;;;;;;;7363622;19;20018;-62
2022/01/17 07:34:18;;;;;;;5.43;1.38;;;;;;;;;;7377420;19;20011;-62
2022/01/17 07:36:44;;;;;;;3.28;1.10;;;;;;;;;;7370400;19;20011;-62
2022/01/17 07:39:10;;;;;;;2.92;1.15;;;;;;;;;;7374646;19;20604;-62
2022/01/17 07:41:36;;;;;;;4.60;1.20;;;;;;;;;;7359020;19;20015;-62
2022/01/17 07:44:04;;;;;;;2.72;1.10;;;;;;;;;;7344513;19;20034;-62
2022/01/17 07:46:47;;;;;;;6.05;1.40;;;;;;;;;;7352018;19;20022;-63
2022/01/17 07:49:19;;;;;;;3.72;1.15;;;;;;;;;;7369086;19;20860;-66
2022/01/17 07:51:46;;;;;;;4.60;1.55;;;;;;;;;;7368961;19;20232;-61
2022/01/17 07:54:15;;;;;;;6.75;1.30;;;;;;;;;;7365688;19;20048;-63
2022/01/17 07:56:42;;;;;;;4.38;1.20;;;;;;;;;;7349038;19;20022;-61
2022/01/17 07:59:08;;;;;;;3.03;1.10;;;;;;;;;;7354645;19;20011;-60
2022/01/17 08:01:34;;;;;;;3.42;1.10;;;;;;;;;;7360504;19;20053;-64
2022/01/17 08:04:01;;;;;;;5.30;1.23;;;;;;;;;;7355382;19;20014;-63
2022/01/17 08:06:27;;;;;;;4.03;1.30;;;;;;;;;;7362214;19;20019;-61
2022/01/17 08:08:55;;;;;;;4.30;1.20;;;;;;;;;;7349425;19;20026;-62
2022/01/17 08:11:21;;;;;;;3.85;1.15;;;;;;;;;;7357635;19;20018;-63
2022/01/17 08:13:47;;;;;;;4.03;1.08;;;;;;;;;;7365069;19;20010;-65
2022/01/17 08:16:14;;;;;;;5.25;1.20;;;;;;;;;;7352371;19;20010;-65
2022/01/17 08:18:41;;;;;;;4.00;1.30;;;;;;;;;;7363634;19;20042;-65
2022/01/17 08:21:07;;;;;;;5.07;1.17;;;;;;;;;;7350577;19;20594;-63
2022/01/17 08:23:33;;;;;;;4.00;1.17;;;;;;;;;;7357089;19;20272;-67
2022/01/17 08:25:59;;;;;;;4.68;1.10;;;;;;;;;;7362283;19;20033;-60
2022/01/17 08:28:25;;;;;;;4.10;1.13;;;;;;;;;;7363375;19;20317;-66
2022/01/17 08:30:51;;;;;;;2.72;1.15;;;;;;;;;;7349238;19;20501;-60
2022/01/17 08:33:17;;;;;;;3.60;1.13;;;;;;;;;;7354791;19;20046;-63
2022/01/17 08:35:44;;;;;;;3.50;1.20;;;;;;;;;;7361367;19;20010;-64
2022/01/17 08:38:10;;;;;;;5.55;1.17;;;;;;;;;;7356328;19;20094;-64
2022/01/17 08:43:09;;;;;;;3.90;1.10;;;;;;;;;;7356885;19;20016;-68
2022/01/17 08:45:35;;;;;;;2.90;1.00;;;;;;;;;;7353181;19;20247;-63
2022/01/17 08:48:02;;;;;;;2.10;0.80;;;;;;;;;;7371939;19;20570;-66
2022/01/17 08:50:28;;;;;;;3.50;1.20;;;;;;;;;;7365967;19;20015;-67
2022/01/17 08:52:54;;;;;;;3.47;0.95;;;;;;;;;;7364006;19;20099;-64
2022/01/17 08:55:22;;;;;;;2.42;0.80;;;;;;;;;;7373269;19;20014;-65
2022/01/17 08:57:48;;;;;;;2.40;1.02;;;;;;;;;;7370940;19;20596;-63
2022/01/17 09:00:16;;;;;;;4.05;1.02;;;;;;;;;;7376362;19;20116;-70
2022/01/17 09:02:42;;;;;;;3.88;1.38;;;;;;;;;;7366218;19;20018;-68
2022/01/17 09:05:08;;;;;;;2.92;0.90;;;;;;;;;;7369580;19;20026;-63
2022/01/17 09:07:34;;;;;;;2.90;1.00;;;;;;;;;;7367813;19;20066;-60
2022/01/17 09:10:00;;;;;;;3.97;1.10;;;;;;;;;;7366104;19;20818;-65
2022/01/17 09:12:26;;;;;;;2.50;0.90;;;;;;;;;;7362381;19;20006;-68
2022/01/17 09:14:52;;;;;;;2.25;0.90;;;;;;;;;;7369610;19;20082;-61
2022/01/17 09:17:19;;;;;;;2.03;0.80;;;;;;;;;;7349685;19;20102;-67
2022/01/17 09:19:46;;;;;;;3.35;1.00;;;;;;;;;;7364527;19;20022;-63
2022/01/17 09:22:12;;;;;;;3.70;1.10;;;;;;;;;;7372497;19;20078;-69
2022/01/17 09:24:39;;;;;;;3.65;1.10;;;;;;;;;;7365400;19;20557;-66
2022/01/17 09:27:06;;;;;;;2.92;1.13;;;;;;;;;;7355756;19;20057;-59
2022/01/17 09:29:32;;;;;;;2.70;0.90;;;;;;;;;;7380163;19;20700;-61
2022/01/17 09:31:59;;;;;;;3.50;1.00;;;;;;;;;;7366199;19;20470;-62
2022/01/17 09:34:25;;;;;;;3.63;1.27;;;;;;;;;;7383618;19;20379;-61
2022/01/17 09:36:52;;;;;;;4.93;1.05;;;;;;;;;;7380353;19;20010;-61
2022/01/17 09:39:18;;;;;;;3.30;1.13;;;;;;;;;;7373422;19;20014;-62
2022/01/17 09:41:45;;;;;;;3.17;1.20;;;;;;;;;;7383629;19;20018;-70
2022/01/17 09:44:11;;;;;;;3.25;0.90;;;;;;;;;;7378859;19;20038;-62
2022/01/17 09:46:42;;;;;;;3.10;1.10;;;;;;;;;;7373610;19;20153;-64
2022/01/17 09:49:36;;;;;;;3.08;0.93;;;;;;;;;;7378818;19;20391;-66
2022/01/17 09:54:26;;;;;;;2.83;0.88;;;;;;;;;;7374711;19;20028;-65
2022/01/17 09:56:54;;;;;;;3.70;1.17;;;;;;;;;;7382337;19;20028;-66
2022/01/17 09:59:20;;;;;;;3.60;0.90;;;;;;;;;;7379195;19;20010;-59
2022/01/17 10:01:47;;;;;;;2.67;0.80;;;;;;;;;;7372274;19;20077;-62
2022/01/17 10:04:13;;;;;;;2.67;0.80;;;;;;;;;;7381100;19;20019;-64
2022/01/17 10:06:41;;;;;;;2.75;1.00;;;;;;;;;;7380632;19;20030;-59
2022/01/17 10:09:09;;;;;;;3.50;1.15;;;;;;;;;;7367632;19;20014;-64
2022/01/17 10:11:35;;;;;;;2.42;0.85;;;;;;;;;;7381283;19;20113;-60
2022/01/17 10:14:02;;;;;;;2.35;0.95;;;;;;;;;;7375950;19;20056;-59
2022/01/17 10:16:29;;;;;;;2.28;0.90;;;;;;;;;;7373914;19;20050;-60
2022/01/17 10:18:55;;;;;;;2.30;0.88;;;;;;;;;;7375885;19;20463;-63
2022/01/17 10:21:28;;;;;;;3.58;0.90;;;;;;;;;;7381044;19;20018;-61
2022/01/17 10:24:14;;;;;;;2.95;0.95;;;;;;;;;;7376926;19;20014;-60
2022/01/17 10:29:35;;;;;;;3.40;1.20;;;;;;;;;;7373381;19;20014;-65
2022/01/17 10:35:15;;;;;;;2.55;0.80;;;;;;;;;;7379440;19;20923;-60
2022/01/17 10:37:42;;;;;;;3.25;1.10;;;;;;;;;;7369975;19;20461;-63
2022/01/17 10:40:10;;;;;;;2.75;0.93;;;;;;;;;;7362717;19;20010;-65
2022/01/17 10:42:41;;;;;;;2.88;1.00;;;;;;;;;;7377250;19;20066;-63
2022/01/17 10:45:11;;;;;;;2.92;0.95;;;;;;;;;;7374878;19;20007;-69
2022/01/17 10:47:40;;;;;;;2.53;0.88;;;;;;;;;;7380718;19;20010;-64
2022/01/17 10:50:18;;;;;;;3.20;1.05;;;;;;;;;;7377772;19;20037;-61
2022/01/17 10:52:46;;;;;;;2.70;1.00;;;;;;;;;;7379192;19;20594;-60
2022/01/17 10:55:20;;;;;;;2.05;0.80;;;;;;;;;;7358269;19;20010;-59
2022/01/17 10:57:48;;;;;;;2.70;0.95;;;;;;;;;;7373875;19;20021;-62
2022/01/17 11:00:41;;;;;;;2.38;0.90;;;;;;;;;;7371180;19;20019;-68
2022/01/17 11:03:08;;;;;;;3.08;1.13;;;;;;;;;;7378029;19;20017;-61
2022/01/17 11:05:36;;;;;;;2.58;0.90;;;;;;;;;;7374386;19;20236;-64
2022/01/17 11:08:02;;;;;;;3.13;0.80;;;;;;;;;;7376815;19;20035;-63
2022/01/17 11:13:17;;;;;;;2.60;0.90;;;;;;;;;;7374591;19;20021;-63
2022/01/17 11:15:46;;;;;;;2.72;1.00;;;;;;;;;;7368755;19;20435;-62
2022/01/17 11:18:24;;;;;;;2.70;1.00;;;;;;;;;;7374574;19;20470;-63
2022/01/17 11:20:52;;;;;;;3.40;0.90;;;;;;;;;;7367611;19;20014;-62
2022/01/17 11:23:20;;;;;;;3.40;0.98;;;;;;;;;;7375773;19;20039;-59
2022/01/17 11:25:52;;;;;;;3.10;1.05;;;;;;;;;;7367549;19;20086;-65
2022/01/17 11:28:18;;;;;;;4.13;0.93;;;;;;;;;;7379198;19;20034;-63
2022/01/17 11:30:45;;;;;;;5.10;1.02;;;;;;;;;;7363644;19;20396;-63
2022/01/17 11:33:11;;;;;;;5.28;1.20;;;;;;;;;;7374223;19;20244;-62
2022/01/17 11:35:42;;;;;;;7.82;1.63;;;;;;;;;;7371314;19;20018;-63
2022/01/17 11:38:11;;;;;;;7.75;1.52;;;;;;;;;;7378032;19;20014;-59
2022/01/17 11:43:32;;;;;;;6.82;1.55;;;;;;;;;;7351019;19;20777;-68
2022/01/17 11:45:58;;;;;;;6.03;1.38;;;;;;;;;;7331074;19;20018;-65
2022/01/17 11:48:27;;;;;;;9.00;1.67;;;;;;;;;;7266693;19;21026;-61
2022/01/17 11:50:54;;;;;;;9.48;1.40;;;;;;;;;;7227417;19;20007;-46
